createdAt,value
2018-08-12T00:01:14.453Z,0.60
2018-08-12T00:04:18.417Z,0.30
2018-08-12T00:07:22.411Z,0.33
2018-08-12T00:10:26.626Z,0.30
2018-08-12T00:13:30.910Z,0.43
2018-08-12T00:16:35.985Z,0.40
2018-08-12T00:19:40.281Z,0.30
2018-08-12T00:22:44.769Z,0.30
2018-08-12T00:25:48.938Z,0.30
2018-08-12T00:28:53.211Z,0.63
2018-08-12T00:31:57.125Z,0.30
2018-08-12T00:35:01.117Z,0.30
2018-08-12T00:38:05.295Z,0.50
2018-08-12T00:41:10.273Z,0.40
2018-08-12T00:44:14.249Z,0.40
2018-08-12T00:47:18.309Z,0.60
2018-08-12T00:50:23.117Z,0.30
2018-08-12T00:53:27.094Z,0.30
2018-08-12T00:56:31.003Z,0.30
2018-08-12T00:59:35.323Z,0.50
2018-08-12T01:02:39.560Z,0.43
2018-08-12T01:05:43.859Z,0.40
2018-08-12T01:08:48.108Z,0.40
2018-08-12T01:11:52.016Z,0.40
2018-08-12T01:14:55.912Z,0.37
2018-08-12T01:18:00.208Z,0.40
2018-08-12T01:21:04.505Z,0.30
2018-08-12T01:24:08.702Z,0.40
2018-08-12T01:27:13.968Z,0.37
2018-08-12T01:30:19.271Z,0.30
2018-08-12T01:33:24.965Z,0.30
2018-08-12T01:36:28.873Z,0.40
2018-08-12T01:39:32.984Z,0.40
2018-08-12T01:42:37.150Z,0.30
2018-08-12T01:45:41.331Z,0.30
2018-08-12T01:48:45.670Z,0.40
2018-08-12T01:51:50.337Z,0.30
2018-08-12T01:54:54.673Z,0.40
2018-08-12T01:58:04.985Z,0.30
2018-08-12T02:01:08.913Z,0.60
2018-08-12T02:04:12.836Z,0.50
2018-08-12T02:07:16.975Z,0.80
2018-08-12T02:10:20.972Z,0.50
2018-08-12T02:13:25.284Z,0.30
2018-08-12T02:16:29.544Z,0.60
2018-08-12T02:19:33.812Z,0.60
2018-08-12T02:22:38.312Z,0.30
2018-08-12T02:25:42.480Z,0.30
2018-08-12T02:28:46.396Z,0.50
2018-08-12T02:31:50.641Z,0.40
2018-08-12T02:34:54.564Z,0.30
2018-08-12T02:37:58.508Z,0.50
2018-08-12T02:41:03.005Z,0.53
2018-08-12T02:44:06.925Z,0.33
2018-08-12T02:47:10.857Z,0.40
2018-08-12T02:50:15.009Z,0.50
2018-08-12T02:53:19.053Z,0.40
2018-08-12T02:56:23.313Z,0.40
2018-08-12T02:59:28.216Z,0.30
2018-08-12T03:02:33.129Z,0.30
2018-08-12T03:05:37.325Z,0.30
2018-08-12T03:08:41.564Z,0.40
2018-08-12T03:11:45.843Z,0.50
2018-08-12T03:14:50.872Z,0.40
2018-08-12T03:17:54.785Z,0.30
2018-08-12T03:20:58.725Z,0.40
2018-08-12T03:24:03.047Z,0.40
2018-08-12T03:27:07.033Z,0.30
2018-08-12T03:30:12.260Z,0.43
2018-08-12T03:33:16.231Z,0.30
2018-08-12T03:36:21.182Z,0.40
2018-08-12T03:39:25.820Z,0.57
2018-08-12T03:42:30.061Z,0.50
2018-08-12T03:45:34.231Z,0.30
2018-08-12T03:48:38.454Z,0.40
2018-08-12T03:51:43.447Z,0.40
2018-08-12T03:54:47.720Z,0.67
2018-08-12T03:57:51.665Z,0.30
2018-08-12T04:00:55.934Z,0.50
2018-08-12T04:04:01.192Z,0.57
2018-08-12T04:07:05.121Z,0.40
2018-08-12T04:10:09.525Z,0.40
2018-08-12T04:13:13.436Z,0.50
2018-08-12T04:16:17.460Z,0.50
2018-08-12T04:19:21.680Z,0.60
2018-08-12T04:22:25.960Z,0.33
2018-08-12T04:25:30.476Z,0.40
2018-08-12T04:28:34.820Z,0.50
2018-08-12T04:31:39.813Z,0.60
2018-08-12T04:34:44.012Z,0.47
2018-08-12T04:37:49.288Z,0.50
2018-08-12T04:40:53.540Z,0.40
2018-08-12T04:43:57.578Z,0.40
2018-08-12T04:47:01.571Z,0.70
2018-08-12T04:50:05.888Z,0.30
2018-08-12T04:53:09.770Z,0.40
2018-08-12T04:56:14.677Z,0.50
2018-08-12T04:59:18.838Z,0.50
2018-08-12T05:02:22.788Z,0.73
2018-08-12T05:05:26.704Z,0.30
2018-08-12T05:08:31.029Z,0.40
2018-08-12T05:11:34.948Z,0.67
2018-08-12T05:14:38.896Z,0.60
2018-08-12T05:17:43.004Z,0.60
2018-08-12T05:20:47.253Z,0.40
2018-08-12T05:23:51.147Z,0.50
2018-08-12T05:26:55.048Z,0.40
2018-08-12T05:29:58.980Z,0.53
2018-08-12T05:33:03.509Z,0.43
2018-08-12T05:36:07.712Z,0.40
2018-08-12T05:39:13.530Z,0.40
2018-08-12T05:42:17.701Z,0.40
2018-08-12T05:45:21.965Z,0.57
2018-08-12T05:48:26.416Z,0.30
2018-08-12T05:51:30.445Z,0.60
2018-08-12T05:54:34.689Z,0.40
2018-08-12T05:57:39.729Z,0.70
2018-08-12T06:00:43.628Z,0.60
2018-08-12T06:03:48.017Z,0.40
2018-08-12T06:06:51.950Z,0.40
2018-08-12T06:09:55.895Z,0.50
2018-08-12T06:12:59.798Z,0.43
2018-08-12T06:16:03.780Z,0.57
2018-08-12T06:19:07.716Z,0.50
2018-08-12T06:22:11.637Z,0.50
2018-08-12T06:25:15.925Z,0.53
2018-08-12T06:28:19.848Z,0.47
2018-08-12T06:31:24.129Z,0.40
2018-08-12T06:34:28.321Z,0.53
2018-08-12T06:37:32.382Z,0.50
2018-08-12T06:40:36.552Z,0.50
2018-08-12T06:43:40.722Z,0.60
2018-08-12T06:46:45.630Z,0.40
2018-08-12T06:49:49.553Z,0.40
2018-08-12T06:52:53.492Z,0.50
2018-08-12T06:55:57.740Z,0.60
2018-08-12T06:59:01.633Z,1.03
2018-08-12T07:02:05.778Z,0.47
2018-08-12T07:05:10.631Z,0.50
2018-08-12T07:08:14.510Z,0.30
2018-08-12T07:11:18.787Z,0.30
2018-08-12T07:14:23.007Z,0.33
2018-08-12T07:17:28.098Z,0.40
2018-08-12T07:20:32.461Z,0.37
2018-08-12T07:23:36.382Z,0.50
2018-08-12T07:26:40.341Z,0.50
2018-08-12T07:29:44.280Z,0.40
2018-08-12T07:32:48.624Z,0.57
2018-08-12T07:35:52.997Z,0.60
2018-08-12T07:38:57.142Z,0.67
2018-08-12T07:42:01.244Z,0.40
2018-08-12T07:45:07.549Z,0.57
2018-08-12T07:48:11.484Z,0.57
2018-08-12T07:51:15.535Z,0.37
2018-08-12T07:54:19.496Z,0.40
2018-08-12T07:57:23.735Z,0.90
2018-08-12T08:00:27.700Z,0.33
2018-08-12T08:03:31.792Z,0.40
2018-08-12T08:06:35.701Z,0.30
2018-08-12T08:09:39.640Z,0.47
2018-08-12T08:12:43.579Z,0.47
2018-08-12T08:15:47.513Z,0.40
2018-08-12T08:18:51.421Z,0.57
2018-08-12T08:21:55.713Z,0.40
2018-08-12T08:24:59.742Z,0.50
2018-08-12T08:28:03.704Z,0.40
2018-08-12T08:31:08.076Z,0.40
2018-08-12T08:34:11.992Z,0.60
2018-08-12T08:37:15.893Z,0.53
2018-08-12T08:40:19.786Z,0.30
2018-08-12T08:43:23.737Z,0.70
2018-08-12T08:46:28.236Z,0.50
2018-08-12T08:49:32.622Z,0.57
2018-08-12T08:52:37.293Z,0.40
2018-08-12T08:55:41.661Z,0.50
2018-08-12T08:58:45.691Z,0.50
2018-08-12T09:01:49.994Z,0.30
2018-08-12T09:04:54.237Z,0.40
2018-08-12T09:07:59.575Z,0.50
2018-08-12T09:11:04.184Z,0.40
2018-08-12T09:14:08.364Z,0.37
2018-08-12T09:17:12.952Z,0.50
2018-08-12T09:20:19.253Z,0.70
2018-08-12T09:23:37.987Z,0.70
2018-08-12T09:26:42.075Z,0.63
2018-08-12T09:29:45.973Z,0.57
2018-08-12T09:32:51.019Z,0.80
2018-08-12T09:35:55.172Z,0.63
2018-08-12T09:38:59.116Z,0.87
2018-08-12T09:42:03.029Z,0.40
2018-08-12T09:45:09.373Z,0.40
2018-08-12T09:48:13.523Z,0.50
2018-08-12T09:51:17.824Z,0.70
2018-08-12T09:54:23.334Z,0.40
2018-08-12T09:57:27.226Z,0.90
2018-08-12T10:00:36.693Z,0.97
2018-08-12T10:03:41.214Z,1.03
2018-08-12T10:06:45.166Z,0.70
2018-08-12T10:09:49.666Z,0.90
2018-08-12T10:12:53.633Z,0.93
2018-08-12T10:15:57.865Z,0.90
2018-08-12T10:19:01.803Z,1.13
2018-08-12T10:22:05.730Z,0.83
2018-08-12T10:25:10.297Z,0.77
2018-08-12T10:28:14.265Z,0.60
2018-08-12T10:31:18.204Z,0.83
2018-08-12T10:34:22.121Z,0.70
2018-08-12T10:37:27.076Z,0.77
2018-08-12T10:40:31.000Z,1.10
2018-08-12T10:43:35.183Z,0.83
2018-08-12T10:46:39.256Z,0.80
2018-08-12T10:49:43.156Z,0.80
2018-08-12T10:52:47.867Z,0.80
2018-08-12T10:55:51.836Z,0.80
2018-08-12T10:58:55.771Z,0.93
2018-08-12T11:01:59.735Z,1.20
2018-08-12T11:05:03.652Z,1.40
2018-08-12T11:08:07.552Z,1.00
2018-08-12T11:11:11.741Z,1.00
2018-08-12T11:14:16.049Z,1.20
2018-08-12T11:17:20.082Z,1.30
2018-08-12T11:20:24.716Z,0.70
2018-08-12T11:23:28.828Z,0.80
2018-08-12T11:26:34.156Z,0.80
2018-08-12T11:29:38.192Z,0.80
